createdAt,value
2023-05-01T00:02:15.226Z,14.20
2023-05-01T00:04:42.601Z,14.10
2023-05-01T00:07:09.929Z,14.20
2023-05-01T00:09:37.437Z,14.10
2023-05-01T00:12:04.842Z,14.10
2023-05-01T00:14:31.949Z,14.10
2023-05-01T00:16:59.233Z,14.00
2023-05-01T00:19:26.503Z,14.00
2023-05-01T00:21:53.726Z,13.90
2023-05-01T00:24:20.980Z,13.90
2023-05-01T00:26:48.130Z,13.90
2023-05-01T00:29:15.456Z,14.00
2023-05-01T00:31:42.842Z,14.00
2023-05-01T00:34:11.715Z,13.90
2023-05-01T00:36:39.018Z,14.00
2023-05-01T00:39:08.712Z,14.10
2023-05-01T00:41:36.328Z,14.20
2023-05-01T00:44:03.704Z,14.10
2023-05-01T00:46:32.524Z,14.10
2023-05-01T00:48:59.982Z,14.20
2023-05-01T00:51:29.471Z,14.20
2023-05-01T00:53:57.186Z,14.20
2023-05-01T00:56:26.481Z,14.10
2023-05-01T00:58:54.758Z,14.20
2023-05-01T01:01:22.098Z,14.20
2023-05-01T01:03:51.989Z,14.20
2023-05-01T01:06:37.106Z,14.20
2023-05-01T01:09:13.627Z,14.30
2023-05-01T01:12:17.716Z,14.30
2023-05-01T01:15:17.193Z,14.30
2023-05-01T01:18:09.127Z,14.20
2023-05-01T01:20:46.995Z,14.30
2023-05-01T01:23:37.167Z,14.30
2023-05-01T01:26:24.174Z,14.30
2023-05-01T01:28:57.153Z,14.00
2023-05-01T01:31:58.496Z,14.10
2023-05-01T01:34:36.815Z,14.20
2023-05-01T01:37:29.811Z,14.20
2023-05-01T01:40:14.250Z,14.20
2023-05-01T01:42:45.780Z,14.20
2023-05-01T01:45:20.032Z,14.20
2023-05-01T01:47:48.566Z,14.20
2023-05-01T01:50:17.809Z,14.20
2023-05-01T01:52:49.471Z,14.20
2023-05-01T01:55:21.172Z,14.20
2023-05-01T01:57:50.748Z,14.10
2023-05-01T02:00:18.983Z,14.10
2023-05-01T02:02:48.617Z,14.10
2023-05-01T02:05:17.879Z,14.10
2023-05-01T02:07:48.782Z,13.90
2023-05-01T02:10:16.800Z,13.80
2023-05-01T02:12:47.160Z,13.90
2023-05-01T02:15:18.444Z,13.90
2023-05-01T02:17:46.183Z,14.00
2023-05-01T02:20:14.542Z,14.00
2023-05-01T02:22:42.726Z,13.90
2023-05-01T02:25:12.910Z,13.80
2023-05-01T02:28:02.901Z,13.80
2023-05-01T02:30:30.389Z,13.70
2023-05-01T02:32:58.046Z,13.80
2023-05-01T02:35:25.393Z,13.90
2023-05-01T02:37:52.763Z,14.00
2023-05-01T02:40:20.374Z,13.90
2023-05-01T02:42:50.021Z,13.90
2023-05-01T02:45:22.815Z,13.90
2023-05-01T02:47:55.465Z,13.80
2023-05-01T02:50:23.731Z,13.70
2023-05-01T02:52:51.640Z,13.60
2023-05-01T02:55:19.320Z,13.60
2023-05-01T02:57:46.473Z,13.50
2023-05-01T03:00:14.188Z,13.50
2023-05-01T03:02:41.495Z,13.50
2023-05-01T03:05:08.989Z,13.60
2023-05-01T03:07:36.397Z,13.70
2023-05-01T03:10:05.110Z,13.70
2023-05-01T03:12:32.311Z,13.50
2023-05-01T03:14:59.592Z,13.50
2023-05-01T03:17:27.437Z,13.40
2023-05-01T03:19:55.167Z,13.40
2023-05-01T03:22:22.992Z,13.30
2023-05-01T03:24:51.103Z,13.40
2023-05-01T03:27:18.237Z,13.30
2023-05-01T03:29:45.682Z,13.20
2023-05-01T03:32:12.877Z,13.20
2023-05-01T03:34:40.244Z,13.20
2023-05-01T03:37:07.354Z,13.20
2023-05-01T03:39:34.612Z,13.30
2023-05-01T03:42:02.533Z,13.20
2023-05-01T03:44:30.221Z,13.10
2023-05-01T03:46:57.537Z,13.20
2023-05-01T03:49:24.764Z,13.30
2023-05-01T03:51:52.546Z,13.30
2023-05-01T03:54:19.707Z,13.40
2023-05-01T03:56:46.947Z,13.30
2023-05-01T03:59:14.506Z,13.40
2023-05-01T04:01:41.604Z,13.40
2023-05-01T04:04:09.000Z,13.30
2023-05-01T04:06:37.275Z,13.10
2023-05-01T04:09:04.311Z,13.10
2023-05-01T04:11:31.575Z,13.00
2023-05-01T04:13:58.891Z,13.00
2023-05-01T04:16:26.307Z,13.00
2023-05-01T04:18:53.650Z,13.00
2023-05-01T04:21:20.803Z,13.10
2023-05-01T04:23:51.023Z,13.10
2023-05-01T04:26:18.194Z,13.10
2023-05-01T04:28:45.826Z,13.10
2023-05-01T04:31:13.377Z,13.00
2023-05-01T04:33:40.683Z,13.00
2023-05-01T04:36:07.985Z,13.00
2023-05-01T04:38:37.384Z,13.00
2023-05-01T04:41:06.749Z,12.90
2023-05-01T04:43:34.253Z,12.90
2023-05-01T04:46:01.616Z,12.80
2023-05-01T04:48:28.817Z,12.90
2023-05-01T04:50:55.933Z,12.90
2023-05-01T04:53:23.274Z,12.90
2023-05-01T04:55:51.052Z,13.10
2023-05-01T04:58:18.105Z,13.20
2023-05-01T05:00:45.319Z,13.20
2023-05-01T05:03:19.082Z,13.10
2023-05-01T05:05:48.848Z,13.30
2023-05-01T05:08:15.901Z,13.40
2023-05-01T05:10:43.030Z,13.40
2023-05-01T05:13:12.865Z,13.40
2023-05-01T05:15:40.113Z,13.50
2023-05-01T05:18:07.664Z,13.40
2023-05-01T05:20:39.896Z,13.30
2023-05-01T05:23:08.439Z,13.10
2023-05-01T05:25:36.106Z,13.10
2023-05-01T05:28:03.724Z,13.10
2023-05-01T05:30:31.395Z,13.10
2023-05-01T05:32:58.613Z,13.10
2023-05-01T05:35:25.803Z,13.10
2023-05-01T05:37:54.955Z,13.10
2023-05-01T05:40:22.124Z,13.10
2023-05-01T05:42:49.302Z,13.20
2023-05-01T05:45:16.593Z,13.10
2023-05-01T05:47:43.833Z,13.10
2023-05-01T05:50:11.397Z,13.20
2023-05-01T05:52:38.612Z,13.20
2023-05-01T05:55:06.778Z,13.30
2023-05-01T05:57:37.284Z,13.30
2023-05-01T06:00:05.751Z,13.30
2023-05-01T06:02:33.077Z,13.30
2023-05-01T06:05:00.241Z,13.40
2023-05-01T06:07:28.443Z,13.30
2023-05-01T06:09:56.565Z,13.30
2023-05-01T06:12:25.606Z,13.40
2023-05-01T06:14:54.008Z,13.40
2023-05-01T06:17:21.248Z,13.40
2023-05-01T06:19:48.523Z,13.40
2023-05-01T06:22:15.671Z,13.40
2023-05-01T06:24:42.822Z,13.60
2023-05-01T06:27:10.196Z,13.50
2023-05-01T06:29:37.141Z,13.60
2023-05-01T06:32:04.697Z,13.60
2023-05-01T06:34:31.854Z,13.60
2023-05-01T06:36:58.789Z,13.60
2023-05-01T06:39:25.927Z,13.60
2023-05-01T06:41:53.117Z,13.70
2023-05-01T06:44:20.271Z,13.80
2023-05-01T06:46:47.422Z,13.90
2023-05-01T06:49:14.834Z,13.90
2023-05-01T06:51:41.882Z,14.00
2023-05-01T06:54:09.449Z,14.10
2023-05-01T06:56:36.711Z,14.20
2023-05-01T06:59:03.822Z,14.10
2023-05-01T07:01:32.663Z,14.20
2023-05-01T07:04:01.176Z,14.30
2023-05-01T07:06:28.856Z,14.40
2023-05-01T07:08:56.168Z,14.60
2023-05-01T07:11:23.345Z,14.70
2023-05-01T07:13:50.841Z,14.80
2023-05-01T07:16:18.068Z,14.80
2023-05-01T07:18:45.250Z,14.80
2023-05-01T07:21:12.405Z,14.90
2023-05-01T07:23:39.775Z,14.90
2023-05-01T07:26:07.085Z,15.10
2023-05-01T07:28:34.386Z,15.30
2023-05-01T07:31:02.019Z,15.50
2023-05-01T07:33:29.625Z,15.40
2023-05-01T07:35:58.294Z,15.40
2023-05-01T07:38:25.471Z,15.50
2023-05-01T07:40:57.222Z,15.60
2023-05-01T07:43:24.453Z,15.80
2023-05-01T07:45:57.577Z,16.00
2023-05-01T07:48:25.187Z,16.10
2023-05-01T07:50:52.662Z,16.00
2023-05-01T07:53:20.473Z,16.20
2023-05-01T07:55:47.632Z,16.30
2023-05-01T07:58:15.001Z,16.20
2023-05-01T08:00:48.130Z,16.30
2023-05-01T08:03:15.428Z,16.40
2023-05-01T08:05:43.057Z,16.90
2023-05-01T08:08:11.008Z,16.90
2023-05-01T08:10:38.342Z,16.80
2023-05-01T08:13:05.541Z,17.10
2023-05-01T08:15:32.850Z,17.00
2023-05-01T08:18:00.091Z,16.90
2023-05-01T08:20:27.472Z,16.80
2023-05-01T08:22:54.678Z,16.60
2023-05-01T08:25:21.791Z,16.40
2023-05-01T08:27:50.300Z,16.70
2023-05-01T08:30:17.471Z,16.60
2023-05-01T08:32:44.845Z,16.50
2023-05-01T08:35:12.195Z,16.30
2023-05-01T08:37:39.403Z,16.50
2023-05-01T08:40:09.323Z,16.60
2023-05-01T08:42:39.261Z,16.40
2023-05-01T08:45:09.371Z,16.60
2023-05-01T08:47:39.486Z,16.80
2023-05-01T08:50:12.147Z,16.60
2023-05-01T08:52:43.315Z,16.60
2023-05-01T08:55:20.023Z,16.50
2023-05-01T08:57:48.428Z,16.70
2023-05-01T09:00:22.470Z,16.80
2023-05-01T09:02:51.465Z,16.60
2023-05-01T09:05:20.214Z,16.60
2023-05-01T09:07:48.799Z,16.70
2023-05-01T09:10:19.528Z,16.70
2023-05-01T09:12:56.983Z,16.70
2023-05-01T09:15:27.053Z,16.60
2023-05-01T09:17:55.686Z,16.80
2023-05-01T09:20:24.420Z,16.60
2023-05-01T09:22:51.922Z,16.30
2023-05-01T09:25:19.712Z,16.30
2023-05-01T09:27:46.974Z,16.00
2023-05-01T09:30:31.964Z,15.90
2023-05-01T09:33:13.684Z,16.00
2023-05-01T09:35:51.686Z,16.00
2023-05-01T09:38:20.881Z,15.70
2023-05-01T09:40:48.428Z,15.70
2023-05-01T09:43:25.979Z,15.70
2023-05-01T09:46:07.086Z,15.70
2023-05-01T09:48:35.950Z,15.70
2023-05-01T09:51:24.202Z,15.70
2023-05-01T09:53:52.548Z,15.70
2023-05-01T09:56:21.834Z,15.60
2023-05-01T09:58:51.790Z,15.10
2023-05-01T10:01:19.764Z,15.00
2023-05-01T10:03:55.625Z,15.00
2023-05-01T10:06:32.308Z,15.00
2023-05-01T10:08:59.703Z,15.10
2023-05-01T10:11:27.380Z,14.90
2023-05-01T10:14:09.403Z,14.80
2023-05-01T10:16:38.947Z,14.70
2023-05-01T10:19:06.710Z,14.70
2023-05-01T10:21:34.506Z,14.50
2023-05-01T10:24:07.530Z,14.50
2023-05-01T10:26:35.196Z,14.50
2023-05-01T10:29:03.182Z,14.50
2023-05-01T10:31:33.296Z,14.20
2023-05-01T10:34:02.267Z,14.40
2023-05-01T10:36:43.770Z,14.40
2023-05-01T10:39:33.581Z,14.30
2023-05-01T10:42:02.001Z,14.50
2023-05-01T10:44:29.847Z,14.60
2023-05-01T10:46:57.455Z,15.00
2023-05-01T10:49:24.846Z,15.10
2023-05-01T10:51:58.560Z,15.00
2023-05-01T10:54:30.649Z,15.30
2023-05-01T10:57:00.540Z,15.40
2023-05-01T10:59:48.458Z,15.60
2023-05-01T11:02:23.470Z,15.90
2023-05-01T11:04:52.310Z,16.20
2023-05-01T11:07:20.469Z,16.30
2023-05-01T11:09:57.804Z,16.40
2023-05-01T11:12:46.973Z,16.50
2023-05-01T11:15:27.314Z,16.40
2023-05-01T11:17:56.220Z,16.80
2023-05-01T11:20:26.592Z,17.20
2023-05-01T11:22:55.137Z,17.30
2023-05-01T11:25:24.336Z,17.40
2023-05-01T11:27:58.381Z,17.60
2023-05-01T11:30:28.169Z,17.90
2023-05-01T11:32:59.533Z,17.50
2023-05-01T11:35:29.087Z,17.40
2023-05-01T11:37:56.710Z,17.50
2023-05-01T11:40:32.553Z,17.50
2023-05-01T11:43:06.553Z,17.60
2023-05-01T11:45:35.445Z,17.90
2023-05-01T11:48:04.779Z,18.40
2023-05-01T11:50:34.162Z,17.90
2023-05-01T11:53:03.340Z,18.00
2023-05-01T11:55:35.325Z,17.90
2023-05-01T11:58:05.867Z,18.20
2023-05-01T12:00:38.508Z,18.10
2023-05-01T12:03:14.547Z,18.20
2023-05-01T12:05:44.062Z,18.50
2023-05-01T12:08:15.993Z,18.60
2023-05-01T12:10:44.214Z,19.10
2023-05-01T12:13:13.787Z,18.50
2023-05-01T12:15:45.293Z,18.20
2023-05-01T12:18:17.177Z,18.30
2023-05-01T12:20:59.081Z,17.90
2023-05-01T12:23:35.076Z,17.70
2023-05-01T12:26:05.197Z,17.80
2023-05-01T12:28:32.471Z,17.90
2023-05-01T12:31:05.483Z,18.50
2023-05-01T12:33:33.294Z,18.70
2023-05-01T12:36:12.608Z,18.50
2023-05-01T12:38:39.961Z,17.90
2023-05-01T12:41:09.746Z,17.90
2023-05-01T12:43:38.256Z,17.40
2023-05-01T12:46:07.056Z,17.10
2023-05-01T12:48:40.395Z,17.00
2023-05-01T12:51:07.893Z,17.10
2023-05-01T12:53:35.785Z,17.00
2023-05-01T12:56:03.960Z,17.00
2023-05-01T12:58:38.270Z,16.90
2023-05-01T13:01:07.155Z,16.70
2023-05-01T13:03:37.662Z,16.60
2023-05-01T13:06:07.860Z,16.60
2023-05-01T13:08:40.202Z,16.60
2023-05-01T13:11:18.002Z,16.60
2023-05-01T13:13:46.343Z,16.80
2023-05-01T13:16:15.518Z,16.90
2023-05-01T13:18:53.169Z,17.00
2023-05-01T13:21:22.292Z,17.20
2023-05-01T13:23:57.830Z,17.50
2023-05-01T13:26:36.188Z,17.80
2023-05-01T13:29:05.998Z,17.80
2023-05-01T13:31:33.247Z,18.00
2023-05-01T13:34:01.447Z,17.80
2023-05-01T13:36:35.194Z,17.70
2023-05-01T13:39:03.469Z,17.90
2023-05-01T13:41:30.791Z,17.80
2023-05-01T13:43:58.329Z,17.70
2023-05-01T13:46:29.253Z,17.40
2023-05-01T13:49:04.265Z,17.60
2023-05-01T13:51:32.970Z,17.70
2023-05-01T13:54:01.762Z,17.80
2023-05-01T13:56:29.378Z,17.80
2023-05-01T13:58:56.626Z,17.60
2023-05-01T14:01:24.295Z,17.80
2023-05-01T14:03:56.713Z,18.00
2023-05-01T14:06:29.205Z,18.20
2023-05-01T14:09:00.148Z,18.10
2023-05-01T14:11:27.865Z,18.10
2023-05-01T14:14:00.678Z,18.10
2023-05-01T14:16:34.905Z,17.80
2023-05-01T14:19:06.361Z,17.80
2023-05-01T14:21:42.212Z,17.80
2023-05-01T14:24:10.954Z,17.80
2023-05-01T14:26:44.065Z,18.20
2023-05-01T14:29:35.235Z,18.30
2023-05-01T14:32:06.246Z,17.70
2023-05-01T14:34:33.797Z,17.60
2023-05-01T14:37:01.127Z,17.40
2023-05-01T14:39:33.369Z,17.80
2023-05-01T14:42:02.011Z,17.70
2023-05-01T14:44:29.298Z,17.60
2023-05-01T14:46:56.741Z,17.60
2023-05-01T14:49:25.291Z,17.90
2023-05-01T14:51:53.979Z,18.10
2023-05-01T14:54:21.511Z,18.10
2023-05-01T14:56:49.424Z,17.80
2023-05-01T14:59:17.360Z,17.80
2023-05-01T15:01:47.558Z,17.70
2023-05-01T15:04:15.011Z,18.00
2023-05-01T15:06:42.648Z,18.10
2023-05-01T15:09:10.222Z,18.10
2023-05-01T15:11:37.822Z,18.10
2023-05-01T15:14:05.097Z,17.70
2023-05-01T15:16:32.999Z,17.60
2023-05-01T15:19:00.829Z,17.50
2023-05-01T15:21:28.185Z,17.50
2023-05-01T15:23:55.296Z,17.40
2023-05-01T15:26:22.463Z,17.40
2023-05-01T15:28:49.653Z,17.70
2023-05-01T15:31:18.836Z,17.70
2023-05-01T15:33:46.480Z,17.80
2023-05-01T15:36:13.843Z,17.10
2023-05-01T15:38:41.393Z,16.50
2023-05-01T15:41:08.627Z,16.40
2023-05-01T15:43:36.275Z,16.20
2023-05-01T15:46:06.594Z,16.10
2023-05-01T15:48:34.193Z,16.20
2023-05-01T15:51:02.019Z,16.40
2023-05-01T15:53:29.558Z,16.40
2023-05-01T15:55:58.268Z,16.50
2023-05-01T15:58:25.449Z,16.70
2023-05-01T16:00:53.090Z,16.70
2023-05-01T16:03:21.143Z,16.70
2023-05-01T16:05:48.312Z,17.00
2023-05-01T16:08:17.491Z,16.80
2023-05-01T16:10:44.716Z,16.80
2023-05-01T16:13:12.294Z,16.80
2023-05-01T16:15:39.507Z,16.80
2023-05-01T16:18:06.885Z,16.60
2023-05-01T16:20:43.305Z,16.70
2023-05-01T16:23:11.379Z,16.90
2023-05-01T16:25:43.224Z,16.90
2023-05-01T16:28:11.524Z,16.90
2023-05-01T16:30:44.458Z,16.80
2023-05-01T16:33:21.387Z,16.70
2023-05-01T16:35:49.637Z,16.90
2023-05-01T16:38:17.841Z,16.90
2023-05-01T16:40:51.080Z,17.20
2023-05-01T16:43:18.243Z,17.30
2023-05-01T16:45:47.026Z,17.20
2023-05-01T16:48:20.944Z,17.20
2023-05-01T16:50:48.236Z,17.20
2023-05-01T16:53:15.582Z,17.20
2023-05-01T16:55:42.765Z,17.10
2023-05-01T16:58:09.853Z,16.90
2023-05-01T17:00:37.465Z,17.20
2023-05-01T17:03:04.715Z,17.20
2023-05-01T17:05:31.835Z,17.30
2023-05-01T17:07:59.158Z,16.80
2023-05-01T17:10:26.196Z,16.90
2023-05-01T17:12:53.334Z,17.10
2023-05-01T17:15:20.375Z,16.90
2023-05-01T17:17:47.509Z,16.70
2023-05-01T17:20:14.787Z,16.50
2023-05-01T17:22:42.488Z,16.70
2023-05-01T17:25:10.566Z,17.20
2023-05-01T17:27:38.420Z,17.50
2023-05-01T17:30:06.527Z,17.50
2023-05-01T17:32:37.340Z,17.40
2023-05-01T17:35:06.107Z,17.90
2023-05-01T17:37:33.452Z,17.80
2023-05-01T17:40:00.646Z,18.00
2023-05-01T17:42:27.903Z,17.70
2023-05-01T17:44:55.180Z,17.60
2023-05-01T17:47:24.494Z,17.70
2023-05-01T17:49:53.226Z,17.50
2023-05-01T17:52:20.408Z,16.90
2023-05-01T17:54:47.436Z,16.60
2023-05-01T17:57:14.552Z,16.40
2023-05-01T17:59:41.851Z,16.30
2023-05-01T18:02:09.232Z,16.10
2023-05-01T18:04:37.956Z,16.00
2023-05-01T18:07:05.604Z,15.80
2023-05-01T18:09:32.805Z,15.60
2023-05-01T18:11:59.953Z,15.60
2023-05-01T18:14:27.028Z,15.70
2023-05-01T18:16:54.112Z,15.60
2023-05-01T18:19:21.203Z,15.30
2023-05-01T18:21:48.192Z,15.20
2023-05-01T18:24:15.346Z,15.20
2023-05-01T18:26:42.627Z,15.20
2023-05-01T18:29:09.729Z,15.20
2023-05-01T18:31:38.371Z,15.00
2023-05-01T18:34:07.302Z,14.60
2023-05-01T18:36:34.755Z,14.50
2023-05-01T18:39:14.212Z,14.40
2023-05-01T18:41:41.368Z,14.30
2023-05-01T18:44:08.491Z,14.20
2023-05-01T18:46:35.573Z,14.20
2023-05-01T18:49:02.941Z,14.10
2023-05-01T18:51:30.022Z,14.10
2023-05-01T18:53:59.535Z,14.10
2023-05-01T18:56:27.812Z,14.10
2023-05-01T18:58:55.683Z,14.00
2023-05-01T19:01:23.640Z,14.00
2023-05-01T19:03:51.014Z,13.90
2023-05-01T19:06:18.037Z,13.90
2023-05-01T19:08:45.396Z,13.80
2023-05-01T19:11:12.537Z,13.80
2023-05-01T19:13:39.726Z,13.80
2023-05-01T19:16:06.954Z,13.90
2023-05-01T19:18:34.307Z,13.80
2023-05-01T19:21:01.390Z,13.80
2023-05-01T19:23:32.898Z,13.60
2023-05-01T19:25:59.909Z,13.60
2023-05-01T19:28:27.023Z,13.50
2023-05-01T19:30:54.218Z,13.50
2023-05-01T19:33:21.489Z,13.40
2023-05-01T19:35:48.635Z,13.40
2023-05-01T19:38:15.747Z,13.40
2023-05-01T19:40:45.120Z,13.40
2023-05-01T19:43:13.509Z,13.30
2023-05-01T19:45:40.984Z,13.30
2023-05-01T19:48:08.747Z,13.20
2023-05-01T19:50:36.180Z,13.20
2023-05-01T19:53:05.352Z,13.20
2023-05-01T19:55:32.836Z,13.10
2023-05-01T19:58:00.134Z,13.10
2023-05-01T20:00:28.215Z,13.10
2023-05-01T20:02:55.638Z,13.10
2023-05-01T20:05:28.214Z,13.10
2023-05-01T20:07:56.078Z,13.10
2023-05-01T20:10:23.237Z,13.10
2023-05-01T20:12:50.277Z,13.10
2023-05-01T20:15:17.344Z,13.10
2023-05-01T20:17:50.132Z,13.00
2023-05-01T20:20:21.037Z,13.00
2023-05-01T20:22:51.372Z,13.00
2023-05-01T20:25:18.402Z,12.90
2023-05-01T20:27:45.534Z,12.80
2023-05-01T20:30:12.710Z,12.80
2023-05-01T20:32:44.200Z,12.80
2023-05-01T20:35:11.786Z,12.70
2023-05-01T20:37:38.768Z,12.70
2023-05-01T20:40:07.782Z,12.60
2023-05-01T20:42:34.925Z,12.60
2023-05-01T20:45:01.939Z,12.60
2023-05-01T20:47:29.666Z,12.60
2023-05-01T20:49:57.028Z,12.60
2023-05-01T20:52:24.389Z,12.50
2023-05-01T20:54:51.589Z,12.60
2023-05-01T20:57:18.836Z,12.50
2023-05-01T20:59:50.039Z,12.50
2023-05-01T21:02:17.586Z,12.40
2023-05-01T21:04:46.394Z,12.40
2023-05-01T21:07:13.800Z,12.40
2023-05-01T21:09:45.287Z,12.30
2023-05-01T21:12:13.234Z,12.30
2023-05-01T21:14:41.354Z,12.30
2023-05-01T21:17:11.735Z,12.30
2023-05-01T21:19:48.297Z,12.30
2023-05-01T21:22:22.215Z,12.30
2023-05-01T21:24:53.820Z,12.30
2023-05-01T21:27:22.466Z,12.20
2023-05-01T21:30:00.280Z,12.20
2023-05-01T21:32:32.642Z,12.20
2023-05-01T21:35:03.838Z,12.20
2023-05-01T21:37:32.927Z,12.20
2023-05-01T21:40:01.574Z,12.20
2023-05-01T21:42:35.896Z,12.20
2023-05-01T21:45:08.212Z,12.20
2023-05-01T21:47:39.517Z,12.20
2023-05-01T21:50:08.053Z,12.30
2023-05-01T21:52:35.840Z,12.30
2023-05-01T21:55:09.567Z,12.40
2023-05-01T21:57:38.007Z,12.40
2023-05-01T22:00:09.870Z,12.40
2023-05-01T22:02:44.485Z,12.40
2023-05-01T22:05:13.760Z,12.30
2023-05-01T22:07:42.395Z,12.30
2023-05-01T22:10:11.844Z,12.40
2023-05-01T22:12:39.807Z,12.30
2023-05-01T22:15:11.684Z,12.40
2023-05-01T22:17:39.902Z,12.30
2023-05-01T22:20:09.290Z,12.40
2023-05-01T22:22:38.860Z,12.40
2023-05-01T22:25:06.451Z,12.40
2023-05-01T22:27:34.847Z,12.40
2023-05-01T22:30:03.389Z,12.40
2023-05-01T22:32:30.712Z,12.30
2023-05-01T22:34:57.723Z,12.20
2023-05-01T22:37:25.860Z,12.20
2023-05-01T22:39:53.798Z,12.20
2023-05-01T22:42:21.546Z,12.20
2023-05-01T22:44:49.355Z,12.20
2023-05-01T22:47:16.519Z,12.20
2023-05-01T22:49:43.870Z,12.20
2023-05-01T22:52:11.044Z,12.20
2023-05-01T22:54:38.286Z,12.20
2023-05-01T22:57:05.850Z,12.20
2023-05-01T22:59:33.065Z,12.20
2023-05-01T23:02:04.147Z,12.20
2023-05-01T23:04:32.446Z,12.10
2023-05-01T23:06:59.591Z,12.10
2023-05-01T23:09:26.801Z,12.10
2023-05-01T23:11:54.416Z,12.10
2023-05-01T23:14:21.521Z,12.10
2023-05-01T23:16:48.730Z,12.10
2023-05-01T23:19:24.118Z,12.10
2023-05-01T23:22:02.831Z,12.10
2023-05-01T23:24:48.368Z,12.00
2023-05-01T23:27:17.303Z,12.00
2023-05-01T23:29:57.056Z,12.00
2023-05-01T23:32:30.490Z,11.90
2023-05-01T23:35:09.264Z,11.80
2023-05-01T23:37:36.434Z,11.80
2023-05-01T23:40:04.496Z,11.80
2023-05-01T23:42:31.747Z,11.80
2023-05-01T23:44:59.269Z,11.90
2023-05-01T23:47:26.533Z,11.80
2023-05-01T23:49:54.245Z,11.80
2023-05-01T23:52:21.560Z,11.80
2023-05-01T23:54:48.576Z,11.70
2023-05-01T23:57:15.753Z,11.70
2023-05-01T23:59:43.014Z,11.80
